Time;durP1;ratioP1;P1;durP2;ratioP2;P2;SDS_P1;SDS_P2;PMS_P1;PMS_P2;Temp;Humidity;BMP_temperature;BMP_pressure;BME280_temperature;BME280_humidity;BME280_pressure;Samples;Min_cycle;Max_cycle;Signal;HPM_P1;HPM_P2
2020/12/29 00:02:57;;;;;;;70.03;36.33;;;;;;;-0.38;100.00;100467.90;1799258;79;21901;-79
2020/12/29 00:06:03;;;;;;;76.10;46.15;;;;;;;-0.37;100.00;100464.28;1752961;82;21867;-80
2020/12/29 00:09:09;;;;;;;77.67;50.20;;;;;;;-0.38;100.00;100454.47;1799965;79;22627;-79
2020/12/29 00:12:15;;;;;;;120.05;84.45;;;;;;;-0.34;100.00;100448.41;1753178;82;21188;-79
2020/12/29 00:15:21;;;;;;;60.33;34.75;;;;;;;-0.34;100.00;100449.75;1800175;79;21225;-79
2020/12/29 00:18:27;;;;;;;78.33;49.30;;;;;;;-0.34;100.00;100445.23;1754727;82;21281;-79
2020/12/29 00:21:33;;;;;;;75.25;42.30;;;;;;;-0.36;100.00;100431.53;1799915;79;21821;-80
2020/12/29 00:24:39;;;;;;;62.03;36.77;;;;;;;-0.34;100.00;100441.20;1754575;82;21883;-79
2020/12/29 00:27:46;;;;;;;65.03;38.08;;;;;;;-0.37;100.00;100440.57;1799906;79;21847;-79
2020/12/29 00:30:51;;;;;;;59.90;33.65;;;;;;;-0.40;100.00;100444.31;1773677;81;21287;-79
2020/12/29 00:34:02;;;;;;;58.70;33.13;;;;;;;-0.41;100.00;100447.11;1829388;78;21870;-79
2020/12/29 00:37:08;;;;;;;62.00;32.28;;;;;;;-0.42;100.00;100431.96;1828155;78;21787;-79
2020/12/29 00:40:13;;;;;;;61.08;34.40;;;;;;;-0.43;100.00;100444.50;1826901;78;21316;-79
2020/12/29 00:43:20;;;;;;;51.98;29.70;;;;;;;-0.44;100.00;100450.85;1829547;78;21291;-79
2020/12/29 00:46:27;;;;;;;55.05;31.57;;;;;;;-0.47;100.00;100433.61;1826933;78;21288;-79
2020/12/29 00:49:32;;;;;;;59.10;33.40;;;;;;;-0.46;100.00;100443.39;1829277;78;21859;-79
2020/12/29 00:52:37;;;;;;;61.13;36.65;;;;;;;-0.44;100.00;100460.75;1826451;78;21185;-79
2020/12/29 00:55:47;;;;;;;62.80;32.85;;;;;;;-0.43;100.00;100459.77;1829345;78;21185;-79
2020/12/29 00:58:53;;;;;;;60.88;33.30;;;;;;;-0.42;100.00;100475.81;1826508;78;21197;-79
2020/12/29 01:02:05;;;;;;;44.90;27.52;;;;;;;-0.40;100.00;100487.31;1828968;78;21173;-80
2020/12/29 01:05:27;;;;;;;54.08;28.47;;;;;;;-0.35;100.00;100477.60;1725460;83;21367;-80
2020/12/29 01:08:33;;;;;;;46.40;28.23;;;;;;;-0.33;100.00;100483.72;1821667;78;21173;-79
2020/12/29 01:11:40;;;;;;;55.50;31.80;;;;;;;-0.32;100.00;100484.13;1829661;78;21276;-79
2020/12/29 01:14:48;;;;;;;64.07;37.75;;;;;;;-0.33;100.00;100468.48;1825922;78;21324;-79
2020/12/29 01:17:59;;;;;;;63.55;30.88;;;;;;;-0.33;100.00;100460.42;1826293;78;21284;-80
2020/12/29 01:21:04;;;;;;;52.90;29.63;;;;;;;-0.32;100.00;100454.56;1826015;78;21307;-80
2020/12/29 01:24:10;;;;;;;45.33;25.70;;;;;;;-0.30;100.00;100452.12;1828820;78;21284;-79
2020/12/29 01:27:15;;;;;;;44.60;26.57;;;;;;;-0.28;100.00;100455.59;1827131;78;21760;-80
2020/12/29 01:30:21;;;;;;;44.20;26.48;;;;;;;-0.27;99.98;100445.70;1827870;78;21304;-79
2020/12/29 01:33:27;;;;;;;52.15;30.57;;;;;;;-0.26;99.90;100441.55;1825151;78;21327;-79
2020/12/29 01:36:34;;;;;;;56.25;31.70;;;;;;;-0.24;99.82;100425.80;1828977;78;21238;-79
2020/12/29 01:39:40;;;;;;;53.15;30.35;;;;;;;-0.22;99.72;100425.22;1827036;78;21860;-79
2020/12/29 01:42:45;;;;;;;61.37;35.33;;;;;;;-0.24;99.59;100412.35;1829573;78;21647;-79
2020/12/29 01:45:50;;;;;;;44.38;26.20;;;;;;;-0.26;99.52;100395.85;1826993;78;21291;-79
2020/12/29 01:48:56;;;;;;;41.45;26.02;;;;;;;-0.25;99.43;100408.80;1829634;78;21173;-80
2020/12/29 01:52:02;;;;;;;40.83;25.40;;;;;;;-0.27;99.37;100418.33;1825809;78;21305;-79
2020/12/29 01:55:08;;;;;;;38.98;23.85;;;;;;;-0.27;99.32;100431.77;1828628;78;21848;-79
2020/12/29 01:58:15;;;;;;;37.10;23.25;;;;;;;-0.26;99.30;100434.83;1827063;78;21277;-79
2020/12/29 02:01:21;;;;;;;52.20;28.62;;;;;;;-0.23;99.25;100415.45;1829712;78;21261;-79
2020/12/29 02:04:27;;;;;;;43.28;27.02;;;;;;;-0.26;99.17;100381.06;1826602;78;21182;-81
2020/12/29 02:07:32;;;;;;;40.15;24.65;;;;;;;-0.29;99.09;100374.55;1828987;78;21300;-79
2020/12/29 02:10:38;;;;;;;42.00;27.02;;;;;;;-0.31;99.09;100379.18;1826998;78;21819;-79
2020/12/29 02:13:48;;;;;;;55.23;38.78;;;;;;;-0.33;99.10;100370.38;1828085;78;21178;-79
2020/12/29 02:16:55;;;;;;;43.58;25.55;;;;;;;-0.33;99.14;100355.59;1826818;78;21335;-79
2020/12/29 02:20:01;;;;;;;57.90;39.45;;;;;;;-0.33;99.18;100358.28;1828142;78;21280;-79
2020/12/29 02:23:06;;;;;;;42.20;25.20;;;;;;;-0.35;99.21;100351.27;1825276;78;21308;-79
2020/12/29 02:26:12;;;;;;;48.38;26.90;;;;;;;-0.36;99.26;100343.70;1828146;78;21145;-79
2020/12/29 02:29:18;;;;;;;43.13;23.15;;;;;;;-0.35;99.34;100339.17;1825442;78;21813;-80
2020/12/29 02:32:23;;;;;;;45.43;24.35;;;;;;;-0.36;99.43;100334.78;1828399;78;21772;-79
2020/12/29 02:35:28;;;;;;;52.88;27.48;;;;;;;-0.38;99.47;100340.23;1826010;78;21316;-80
2020/12/29 02:38:33;;;;;;;50.90;24.75;;;;;;;-0.38;99.54;100361.73;1828103;78;21315;-79
2020/12/29 02:41:39;;;;;;;48.48;22.55;;;;;;;-0.35;99.60;100357.99;1826847;78;21209;-80
2020/12/29 02:44:46;;;;;;;52.90;24.75;;;;;;;-0.34;99.64;100369.97;1829353;78;21216;-80
2020/12/29 02:47:53;;;;;;;43.45;25.12;;;;;;;-0.30;99.70;100384.07;1827008;78;21355;-79
2020/12/29 02:50:59;;;;;;;58.40;23.40;;;;;;;-0.29;99.69;100387.98;1829621;78;21327;-79
2020/12/29 02:54:05;;;;;;;57.08;23.67;;;;;;;-0.26;99.67;100387.78;1826999;78;21319;-79
2020/12/29 02:57:11;;;;;;;56.13;23.18;;;;;;;-0.22;99.62;100397.85;1828954;78;21315;-79
2020/12/29 03:00:15;;;;;;;57.48;22.67;;;;;;;-0.20;99.56;100398.59;1827103;78;21285;-79
2020/12/29 03:03:21;;;;;;;48.33;22.27;;;;;;;-0.16;99.52;100378.60;1829582;78;21276;-79
2020/12/29 03:06:27;;;;;;;45.58;23.73;;;;;;;-0.13;99.45;100384.27;1825855;78;21708;-79
2020/12/29 03:09:34;;;;;;;47.33;21.95;;;;;;;-0.11;99.34;100379.63;1829612;78;21280;-80
2020/12/29 03:12:39;;;;;;;51.95;26.17;;;;;;;-0.09;99.24;100366.47;1826452;78;21851;-79
2020/12/29 03:15:44;;;;;;;70.25;34.53;;;;;;;-0.06;99.17;100365.38;1828995;78;21331;-79
2020/12/29 03:18:50;;;;;;;74.97;35.08;;;;;;;-0.05;99.03;100369.33;1827052;78;21327;-79
2020/12/29 03:21:57;;;;;;;82.50;38.63;;;;;;;-0.04;98.97;100356.73;1829727;78;21228;-79
2020/12/29 03:25:02;;;;;;;67.97;33.25;;;;;;;-0.04;98.91;100352.70;1827075;78;21704;-79
2020/12/29 03:28:09;;;;;;;50.67;27.05;;;;;;;-0.05;98.87;100362.60;1828735;78;21855;-79
2020/12/29 03:31:15;;;;;;;69.32;37.00;;;;;;;-0.06;98.85;100338.48;1826771;78;21273;-79
2020/12/29 03:34:27;;;;;;;70.57;35.33;;;;;;;-0.05;98.88;100348.27;1826442;78;21823;-80
2020/12/29 03:37:32;;;;;;;67.67;35.15;;;;;;;-0.04;98.89;100360.28;1840469;78;21216;-80
2020/12/29 03:40:39;;;;;;;76.28;35.78;;;;;;;-0.02;98.92;100358.82;1840395;78;21283;-80
2020/12/29 03:43:45;;;;;;;86.80;41.70;;;;;;;-0.02;98.95;100354.30;1841151;78;21291;-80
2020/12/29 03:46:51;;;;;;;85.95;40.30;;;;;;;-0.02;99.01;100344.03;1840583;78;21188;-79
2020/12/29 03:49:56;;;;;;;100.97;55.90;;;;;;;0.01;99.03;100347.00;1826337;78;21213;-79
2020/12/29 03:53:01;;;;;;;70.12;33.48;;;;;;;0.03;99.03;100351.77;1841915;78;21330;-79
2020/12/29 03:56:06;;;;;;;70.42;31.57;;;;;;;0.10;99.05;100366.52;1841419;78;21318;-79
2020/12/29 03:59:13;;;;;;;70.55;31.52;;;;;;;0.18;99.04;100372.20;1826937;78;21717;-80
2020/12/29 04:02:18;;;;;;;70.17;30.57;;;;;;;0.22;98.98;100365.64;1841874;78;21276;-79
2020/12/29 04:05:25;;;;;;;68.67;31.60;;;;;;;0.27;98.87;100359.93;1840352;78;21323;-79
2020/12/29 04:08:31;;;;;;;65.20;30.72;;;;;;;0.30;98.73;100371.83;1826358;78;21280;-79
2020/12/29 04:11:37;;;;;;;53.55;26.23;;;;;;;0.27;98.57;100367.52;1840151;78;21228;-79
2020/12/29 04:14:43;;;;;;;47.95;24.15;;;;;;;0.22;98.41;100365.15;1827888;78;21284;-79
2020/12/29 04:17:50;;;;;;;53.42;25.55;;;;;;;0.17;98.39;100355.20;1840320;78;21322;-79
2020/12/29 04:20:56;;;;;;;49.83;22.87;;;;;;;0.16;98.40;100350.80;1841489;78;21572;-79
2020/12/29 04:24:02;;;;;;;49.70;28.17;;;;;;;0.18;98.49;100356.06;1841771;78;21775;-79
2020/12/29 04:27:07;;;;;;;41.60;21.55;;;;;;;0.18;98.58;100362.78;1826467;78;21355;-80
2020/12/29 04:30:13;;;;;;;44.13;23.32;;;;;;;0.19;98.60;100369.42;1841440;78;21300;-79
2020/12/29 04:33:19;;;;;;;50.92;29.55;;;;;;;0.18;98.65;100364.98;1841019;78;21331;-79
2020/12/29 04:36:25;;;;;;;46.75;22.52;;;;;;;0.19;98.73;100366.73;1800273;79;21300;-80
2020/12/29 04:39:31;;;;;;;43.65;23.15;;;;;;;0.20;98.75;100372.97;1800386;79;21284;-80
2020/12/29 04:42:36;;;;;;;48.25;25.37;;;;;;;0.21;98.80;100368.81;1801917;79;21780;-80
2020/12/29 04:45:42;;;;;;;59.30;27.35;;;;;;;0.24;98.82;100365.92;1801848;79;21293;-80
2020/12/29 04:48:47;;;;;;;60.25;29.32;;;;;;;0.27;98.83;100372.04;1789678;79;21185;-80
2020/12/29 04:51:53;;;;;;;64.20;29.07;;;;;;;0.30;98.85;100371.83;1800481;79;21308;-80
2020/12/29 04:55:02;;;;;;;63.48;28.65;;;;;;;0.32;98.85;100369.39;1801685;79;21281;-79
2020/12/29 04:58:08;;;;;;;;;;;;;;;0.36;98.80;100371.38;1803276;79;21308;-79
2020/12/29 05:01:16;;;;;;;91.63;37.53;;;;;;;0.39;98.77;100371.17;1801886;79;20679;-79
2020/12/29 05:04:25;;;;;;;99.35;44.80;;;;;;;0.36;98.71;100366.86;1801280;79;21756;-79
2020/12/29 05:07:31;;;;;;;88.25;34.75;;;;;;;0.31;98.70;100359.60;1800824;79;21313;-80
2020/12/29 05:10:36;;;;;;;61.98;30.10;;;;;;;0.29;98.72;100346.76;1801122;79;21174;-79
2020/12/29 05:13:43;;;;;;;51.85;25.12;;;;;;;0.27;98.82;100341.09;1799656;79;21288;-79
2020/12/29 05:16:49;;;;;;;51.30;26.65;;;;;;;0.23;98.94;100344.00;1801216;79;21827;-79
2020/12/29 05:19:55;;;;;;;50.25;25.88;;;;;;;0.21;99.07;100331.16;1801260;79;21315;-79
2020/12/29 05:23:02;;;;;;;42.58;21.17;;;;;;;0.21;99.22;100348.64;1789852;79;21899;-79
2020/12/29 05:26:10;;;;;;;54.75;26.37;;;;;;;0.21;99.36;100351.33;1801751;79;21725;-79
2020/12/29 05:29:17;;;;;;;42.35;21.60;;;;;;;0.22;99.50;100355.73;1801773;79;21181;-79
2020/12/29 05:32:26;;;;;;;47.98;23.55;;;;;;;0.22;99.64;100362.46;1801876;79;22469;-79
2020/12/29 05:35:31;;;;;;;41.88;22.17;;;;;;;0.23;99.77;100364.17;1786832;79;21268;-79
2020/12/29 05:38:36;;;;;;;57.70;24.43;;;;;;;0.24;99.87;100349.78;1763080;80;21305;-79
2020/12/29 05:41:54;;;;;;;70.35;28.70;;;;;;;0.25;99.96;100351.48;1795856;80;21784;-79
2020/12/29 05:44:59;;;;;;;83.00;24.35;;;;;;;0.23;100.00;100360.14;1795784;80;21277;-79
2020/12/29 05:48:05;;;;;;;81.15;28.95;;;;;;;0.21;100.00;100357.20;1794322;80;21292;-80
2020/12/29 05:51:23;;;;;;;88.78;29.10;;;;;;;0.19;100.00;100367.22;1795219;80;21300;-79
2020/12/29 05:54:29;;;;;;;94.03;27.42;;;;;;;0.21;100.00;100385.45;1783753;80;21339;-79
2020/12/29 05:57:35;;;;;;;78.40;25.25;;;;;;;0.23;100.00;100391.56;1794840;80;21848;-80
2020/12/29 06:00:42;;;;;;;69.55;24.45;;;;;;;0.24;100.00;100386.09;1795883;80;21355;-79
2020/12/29 06:03:49;;;;;;;69.72;27.32;;;;;;;0.24;100.00;100384.75;1795547;80;21632;-78
2020/12/29 06:06:56;;;;;;;62.30;23.92;;;;;;;0.25;100.00;100377.05;1778862;80;21250;-78
2020/12/29 06:10:02;;;;;;;53.52;22.85;;;;;;;0.28;100.00;100379.13;1764868;81;21897;-80
2020/12/29 06:13:14;;;;;;;57.33;28.23;;;;;;;0.28;100.00;100373.75;1794744;80;21312;-80
2020/12/29 06:16:22;;;;;;;54.33;24.52;;;;;;;0.30;100.00;100390.66;1762449;80;21220;-80
2020/12/29 06:19:36;;;;;;;47.48;22.20;;;;;;;0.32;100.00;100387.37;1751091;81;21221;-79
2020/12/29 06:22:42;;;;;;;40.95;22.67;;;;;;;0.34;100.00;100390.34;1744662;81;21358;-80
2020/12/29 06:25:48;;;;;;;44.65;21.75;;;;;;;0.38;100.00;100377.53;1772816;80;21637;-80
2020/12/29 06:29:00;;;;;;;42.80;22.13;;;;;;;0.39;100.00;100369.34;1784067;80;21304;-79
2020/12/29 06:32:25;;;;;;;47.70;24.05;;;;;;;0.43;100.00;100369.98;1729567;80;21205;-80
2020/12/29 06:35:30;;;;;;;48.08;23.77;;;;;;;0.46;100.00;100373.30;1770474;80;21368;-80
2020/12/29 06:38:38;;;;;;;49.70;23.95;;;;;;;0.50;100.00;100372.59;1834449;78;21934;-80
2020/12/29 06:41:46;;;;;;;55.50;24.82;;;;;;;0.51;100.00;100375.66;1774037;79;21355;-80
2020/12/29 06:44:52;;;;;;;59.90;28.60;;;;;;;0.50;100.00;100385.56;1766138;79;21311;-80
2020/12/29 06:47:58;;;;;;;58.90;29.42;;;;;;;0.53;100.00;100383.64;1781155;79;21170;-80
2020/12/29 06:51:06;;;;;;;70.30;32.85;;;;;;;0.54;100.00;100401.02;1779410;79;21315;-79
2020/12/29 06:54:11;;;;;;;69.12;31.35;;;;;;;0.59;100.00;100408.77;1775787;79;21232;-80
2020/12/29 06:57:17;;;;;;;79.55;37.10;;;;;;;0.62;100.00;100414.80;1750725;79;21677;-79
2020/12/29 07:00:26;;;;;;;93.50;36.90;;;;;;;0.69;100.00;100404.44;1787425;79;21270;-79
2020/12/29 07:03:40;;;;;;;97.15;47.35;;;;;;;0.74;100.00;100391.49;1781323;79;21261;-79
2020/12/29 07:06:46;;;;;;;105.20;52.03;;;;;;;0.75;100.00;100384.67;1787100;79;22468;-80
2020/12/29 07:09:54;;;;;;;102.05;46.73;;;;;;;0.75;100.00;100381.09;1777314;79;21212;-79
2020/12/29 07:12:58;;;;;;;111.25;51.05;;;;;;;0.75;100.00;100381.98;1776152;79;21166;-79
2020/12/29 07:16:05;;;;;;;75.92;40.15;;;;;;;0.78;99.98;100378.67;1781833;79;21284;-78
2020/12/29 07:19:19;;;;;;;77.30;39.48;;;;;;;0.81;99.95;100397.31;1776288;79;21307;-78
2020/12/29 07:22:27;;;;;;;74.47;37.20;;;;;;;0.81;99.88;100400.00;1783757;79;21359;-78
2020/12/29 07:25:34;;;;;;;68.12;34.05;;;;;;;0.83;99.85;100390.82;1765775;79;21843;-82
2020/12/29 07:28:43;;;;;;;66.62;32.17;;;;;;;0.86;99.83;100393.80;1777118;79;21276;-80
2020/12/29 07:31:50;;;;;;;76.85;36.35;;;;;;;0.88;99.79;100387.80;1785698;79;21308;-80
2020/12/29 07:34:56;;;;;;;72.42;37.13;;;;;;;0.88;99.71;100389.14;1782509;79;21224;-80
2020/12/29 07:38:03;;;;;;;70.25;37.28;;;;;;;0.89;99.65;100397.59;1793709;78;21193;-79
2020/12/29 07:41:09;;;;;;;77.62;39.53;;;;;;;0.88;99.61;100390.00;1809668;78;21280;-80
2020/12/29 07:44:15;;;;;;;72.12;38.63;;;;;;;0.89;99.57;100409.22;1793297;78;21204;-80
2020/12/29 07:47:22;;;;;;;73.30;37.58;;;;;;;0.92;99.55;100425.66;1806929;78;21300;-81
2020/12/29 07:50:29;;;;;;;74.58;37.20;;;;;;;0.93;99.51;100421.48;1806839;78;21271;-80
2020/12/29 07:53:35;;;;;;;72.95;36.50;;;;;;;0.94;99.46;100412.46;1808721;78;21323;-80
2020/12/29 07:56:41;;;;;;;61.98;31.77;;;;;;;0.96;99.42;100421.28;1808526;78;21268;-80
2020/12/29 07:59:47;;;;;;;62.33;33.92;;;;;;;0.96;99.39;100412.34;1800821;78;21251;-80
2020/12/29 08:02:59;;;;;;;61.77;32.98;;;;;;;0.97;99.36;100411.36;1810156;78;21283;-80
2020/12/29 08:06:06;;;;;;;73.28;35.08;;;;;;;0.97;99.36;100391.16;1807940;78;21295;-79
2020/12/29 08:09:12;;;;;;;64.50;33.73;;;;;;;0.99;99.38;100393.27;1801344;78;21323;-80
2020/12/29 08:12:23;;;;;;;80.70;41.53;;;;;;;0.98;99.36;100378.06;1806270;78;21323;-80
2020/12/29 08:15:42;;;;;;;78.33;38.23;;;;;;;0.98;99.43;100384.30;1808309;78;21252;-80
2020/12/29 08:18:48;;;;;;;74.12;37.93;;;;;;;0.98;99.48;100370.83;1806005;78;21906;-80
2020/12/29 08:21:54;;;;;;;89.87;43.38;;;;;;;0.99;99.58;100379.80;1812100;78;21288;-80
2020/12/29 08:24:59;;;;;;;92.30;43.28;;;;;;;1.01;99.69;100389.47;1798440;78;21292;-80
2020/12/29 08:28:09;;;;;;;85.25;43.78;;;;;;;1.06;99.74;100394.52;1807756;78;21200;-81
2020/12/29 08:31:15;;;;;;;74.77;39.95;;;;;;;1.11;99.79;100395.04;1803935;78;21299;-79
2020/12/29 08:34:21;;;;;;;85.60;42.27;;;;;;;1.13;99.80;100399.84;1807999;78;21307;-80
2020/12/29 08:37:30;;;;;;;100.38;47.10;;;;;;;1.15;99.78;100401.92;1786711;78;21851;-80
2020/12/29 08:40:35;;;;;;;109.17;51.42;;;;;;;1.20;99.76;100392.16;1807321;78;21728;-80
2020/12/29 08:43:51;;;;;;;110.80;54.98;;;;;;;1.21;99.72;100389.82;1800163;78;21269;-80
2020/12/29 08:46:57;;;;;;;105.27;50.52;;;;;;;1.22;99.71;100383.45;1807680;78;21528;-81
2020/12/29 08:50:04;;;;;;;115.15;52.27;;;;;;;1.25;99.72;100383.23;1801689;78;21158;-80
2020/12/29 08:53:14;;;;;;;101.12;50.33;;;;;;;1.28;99.74;100376.28;1802677;78;21779;-80
2020/12/29 08:56:33;;;;;;;98.35;45.35;;;;;;;1.28;99.74;100383.02;1799775;78;21281;-80
2020/12/29 08:59:46;;;;;;;86.55;42.23;;;;;;;1.30;99.76;100385.59;1802642;78;21287;-80
2020/12/29 09:02:52;;;;;;;88.62;41.85;;;;;;;1.32;99.81;100378.23;1803312;78;21894;-81
2020/12/29 09:06:00;;;;;;;94.95;46.50;;;;;;;1.36;99.83;100379.72;1801974;77;21197;-80
2020/12/29 09:09:10;;;;;;;73.65;36.45;;;;;;;1.41;99.83;100382.92;1804575;78;21511;-79
2020/12/29 09:12:21;;;;;;;;;;;;;;;1.44;99.84;100379.52;1811041;78;21322;-80
2020/12/29 09:15:33;;;;;;;77.37;34.53;;;;;;;1.46;99.81;100376.23;1801549;78;20331;-80
2020/12/29 09:18:49;;;;;;;68.47;33.25;;;;;;;1.48;99.83;100368.02;1807262;78;21777;-79
2020/12/29 09:22:16;;;;;;;94.52;44.65;;;;;;;1.51;99.81;100359.72;1750704;80;21181;-80
2020/12/29 09:25:41;;;;;;;73.30;36.93;;;;;;;1.54;99.83;100345.98;1760361;80;21322;-80
2020/12/29 09:28:47;;;;;;;81.90;39.88;;;;;;;1.53;99.79;100353.20;1761046;80;21216;-80
2020/12/29 09:32:02;;;;;;;81.65;41.63;;;;;;;1.54;99.84;100354.06;1759886;80;21204;-80
2020/12/29 09:35:27;;;;;;;86.30;43.60;;;;;;;1.57;99.87;100367.32;1756658;80;21194;-80
2020/12/29 09:38:35;;;;;;;76.35;37.55;;;;;;;1.62;99.88;100361.09;1763068;80;21842;-79
2020/12/29 09:41:41;;;;;;;77.65;38.98;;;;;;;1.66;99.86;100353.13;1757863;80;21200;-79
2020/12/29 09:44:47;;;;;;;57.05;29.30;;;;;;;1.71;99.76;100360.38;1759509;80;21190;-79
2020/12/29 09:47:52;;;;;;;45.15;24.05;;;;;;;1.74;99.65;100373.64;1759710;80;21315;-79
2020/12/29 09:50:58;;;;;;;40.35;21.12;;;;;;;1.76;99.52;100368.97;1754403;80;21676;-80
2020/12/29 09:54:04;;;;;;;41.80;20.77;;;;;;;1.76;99.39;100355.48;1759634;80;22392;-79
2020/12/29 09:57:09;;;;;;;37.93;19.75;;;;;;;1.76;99.30;100346.54;1764902;80;21180;-79
2020/12/29 10:00:14;;;;;;;36.98;19.12;;;;;;;1.81;99.36;100348.87;1763915;80;21828;-79
2020/12/29 10:03:21;;;;;;;33.63;19.50;;;;;;;1.88;99.37;100343.36;1712398;83;21204;-80
2020/12/29 10:06:27;;;;;;;39.53;18.02;;;;;;;1.93;99.30;100343.86;1740788;81;21250;-81
2020/12/29 10:09:32;;;;;;;29.60;15.65;;;;;;;1.95;99.20;100348.16;1763464;80;21298;-80
2020/12/29 10:12:38;;;;;;;34.00;19.25;;;;;;;1.98;99.07;100344.38;1764625;80;21830;-80
2020/12/29 10:15:45;;;;;;;27.42;15.48;;;;;;;1.99;98.93;100340.70;1767745;80;21343;-81
2020/12/29 10:18:51;;;;;;;25.50;14.78;;;;;;;2.01;98.78;100348.17;1767576;80;21302;-80
2020/12/29 10:22:04;;;;;;;26.48;15.10;;;;;;;2.03;98.66;100348.92;1760076;80;21335;-80
2020/12/29 10:25:14;;;;;;;34.60;16.57;;;;;;;2.02;98.51;100332.34;1764334;81;21154;-80
2020/12/29 10:28:19;;;;;;;31.15;15.98;;;;;;;2.03;98.42;100338.13;1762450;81;21672;-80
2020/12/29 10:31:25;;;;;;;26.10;13.93;;;;;;;2.05;98.37;100338.36;1762433;81;21290;-80
2020/12/29 10:34:30;;;;;;;25.95;13.70;;;;;;;2.12;98.35;100347.31;1759023;81;21311;-80
2020/12/29 10:37:36;;;;;;;28.12;14.20;;;;;;;2.17;98.28;100351.39;1758536;81;21510;-80
2020/12/29 10:40:41;;;;;;;23.95;15.32;;;;;;;2.20;98.17;100354.31;1766280;81;21192;-80
2020/12/29 10:43:47;;;;;;;32.05;23.00;;;;;;;2.24;98.10;100351.25;1753481;81;23066;-80
2020/12/29 10:46:55;;;;;;;26.40;14.85;;;;;;;2.37;98.11;100352.98;1764749;81;22359;-80
2020/12/29 10:49:55;;;;;;;19.73;12.25;;;;;;;2.47;98.00;100352.61;1756334;81;21295;-79
2020/12/29 10:53:01;;;;;;;20.88;12.35;;;;;;;2.56;97.80;100347.82;1759515;81;21802;-80
2020/12/29 10:56:06;;;;;;;19.55;11.65;;;;;;;2.59;97.49;100357.03;1770468;81;21189;-79
2020/12/29 10:59:12;;;;;;;22.48;12.05;;;;;;;2.60;97.13;100345.73;1761420;81;21388;-79
2020/12/29 11:02:17;;;;;;;25.05;13.32;;;;;;;2.58;96.85;100337.73;1759186;81;21288;-79
2020/12/29 11:05:22;;;;;;;26.85;14.50;;;;;;;2.56;96.62;100346.47;1763650;81;21565;-79
2020/12/29 11:08:28;;;;;;;19.05;10.55;;;;;;;2.55;96.59;100341.56;1770441;81;21288;-79
2020/12/29 11:11:36;;;;;;;23.83;14.38;;;;;;;2.55;96.58;100350.16;1749535;81;21200;-79
2020/12/29 11:14:41;;;;;;;21.37;12.37;;;;;;;2.55;96.61;100355.06;1749005;82;21311;-79
2020/12/29 11:17:46;;;;;;;26.33;14.87;;;;;;;2.52;96.66;100345.85;1714759;83;21232;-79
2020/12/29 11:20:54;;;;;;;21.20;13.75;;;;;;;2.49;96.78;100335.78;1769672;81;22534;-79
2020/12/29 11:24:01;;;;;;;28.00;13.70;;;;;;;2.52;96.97;100331.00;1774638;81;21339;-79
2020/12/29 11:27:08;;;;;;;22.90;13.55;;;;;;;2.54;97.13;100327.70;1769629;81;21869;-79
2020/12/29 11:30:14;;;;;;;22.02;13.28;;;;;;;2.58;97.24;100331.48;1757275;80;21346;-79
2020/12/29 11:33:21;;;;;;;27.10;14.70;;;;;;;2.57;97.28;100323.88;1763339;81;21799;-79
2020/12/29 11:36:28;;;;;;;22.45;12.88;;;;;;;2.53;97.29;100324.61;1759710;81;21350;-79
2020/12/29 11:39:35;;;;;;;23.67;13.72;;;;;;;2.52;97.42;100312.59;1763397;81;21353;-79
2020/12/29 11:42:41;;;;;;;24.90;13.58;;;;;;;2.50;97.60;100314.58;1761770;80;22277;-79
2020/12/29 11:45:47;;;;;;;24.23;14.20;;;;;;;2.50;97.80;100306.47;1758748;80;21271;-79
2020/12/29 11:48:52;;;;;;;25.17;15.30;;;;;;;2.47;98.02;100295.42;1763461;81;21780;-79
2020/12/29 11:51:59;;;;;;;27.60;16.42;;;;;;;2.46;98.26;100302.30;1758125;80;21291;-79
2020/12/29 11:55:05;;;;;;;32.23;18.37;;;;;;;2.47;98.46;100297.27;1760326;81;21381;-79
2020/12/29 11:58:11;;;;;;;25.40;14.75;;;;;;;2.47;98.67;100291.37;1765123;81;21276;-79
2020/12/29 12:01:17;;;;;;;32.95;15.55;;;;;;;2.51;98.88;100309.04;1764297;81;21208;-80
2020/12/29 12:04:22;;;;;;;30.12;17.25;;;;;;;2.53;99.05;100307.06;1761661;81;21615;-80
2020/12/29 12:07:28;;;;;;;30.68;16.93;;;;;;;2.55;99.19;100302.41;1761505;81;21308;-79
2020/12/29 12:10:34;;;;;;;36.83;22.30;;;;;;;2.59;99.28;100297.63;1758678;81;21248;-80
2020/12/29 12:13:40;;;;;;;39.00;20.88;;;;;;;2.61;99.33;100288.03;1761990;81;21312;-79
2020/12/29 12:16:47;;;;;;;33.73;18.45;;;;;;;2.60;99.40;100284.48;1761643;80;21279;-80
2020/12/29 12:19:52;;;;;;;44.88;22.32;;;;;;;2.62;99.45;100297.35;1755600;81;21307;-80
2020/12/29 12:22:58;;;;;;;43.80;21.07;;;;;;;2.63;99.53;100299.06;1766535;80;21225;-80
2020/12/29 12:26:03;;;;;;;70.45;34.40;;;;;;;2.65;99.59;100301.66;1761792;81;21350;-78
2020/12/29 12:29:09;;;;;;;84.35;41.15;;;;;;;2.67;99.67;100319.44;1756283;80;21358;-79
2020/12/29 12:32:14;;;;;;;69.58;35.00;;;;;;;2.69;99.80;100316.14;1761876;81;21943;-78
2020/12/29 12:35:19;;;;;;;82.97;39.73;;;;;;;2.71;99.88;100311.45;1742161;81;21314;-79
2020/12/29 12:38:23;;;;;;;130.27;61.75;;;;;;;2.72;99.93;100319.91;1745331;81;21354;-80
2020/12/29 12:41:29;;;;;;;121.42;57.27;;;;;;;2.73;99.98;100309.97;1754969;81;21314;-79
2020/12/29 12:44:34;;;;;;;101.87;46.63;;;;;;;2.72;99.97;100303.70;1760796;80;21316;-80
2020/12/29 12:47:40;;;;;;;84.52;40.67;;;;;;;2.72;100.00;100288.85;1763469;80;21353;-79
2020/12/29 12:50:45;;;;;;;75.52;35.70;;;;;;;2.73;100.00;100285.66;1760516;81;21291;-79
2020/12/29 12:53:52;;;;;;;73.42;35.15;;;;;;;2.73;100.00;100297.34;1756476;80;21842;-79
2020/12/29 12:57:01;;;;;;;63.63;31.50;;;;;;;2.72;100.00;100292.05;1763454;81;21197;-79
2020/12/29 13:00:07;;;;;;;59.80;30.02;;;;;;;2.70;100.00;100302.98;1753894;81;21343;-79
2020/12/29 13:03:12;;;;;;;72.90;35.92;;;;;;;2.68;100.00;100303.62;1740794;82;21866;-79
2020/12/29 13:06:21;;;;;;;72.72;35.50;;;;;;;2.66;100.00;100301.52;1775098;81;21969;-79
2020/12/29 13:09:27;;;;;;;87.15;40.23;;;;;;;2.65;100.00;100307.91;1752134;82;21287;-78
2020/12/29 13:12:26;;;;;;;79.62;38.42;;;;;;;2.64;100.00;100306.20;1763925;80;21252;-79
2020/12/29 13:15:32;;;;;;;67.35;33.18;;;;;;;2.63;100.00;100310.36;1744895;81;21196;-79
2020/12/29 13:18:37;;;;;;;60.75;28.57;;;;;;;2.60;100.00;100315.53;1751387;81;21163;-79
2020/12/29 13:21:43;;;;;;;60.30;27.62;;;;;;;2.60;100.00;100308.78;1763860;81;21258;-79
2020/12/29 13:24:49;;;;;;;55.58;27.73;;;;;;;2.60;100.00;100303.39;1759839;80;21898;-79
2020/12/29 13:27:55;;;;;;;55.95;28.20;;;;;;;2.61;100.00;100308.30;1765165;81;21618;-80
2020/12/29 13:31:02;;;;;;;58.60;30.97;;;;;;;2.60;100.00;100311.48;1758687;81;21866;-79
2020/12/29 13:34:08;;;;;;;66.53;33.38;;;;;;;2.59;100.00;100316.53;1768103;81;21978;-79
2020/12/29 13:37:14;;;;;;;76.45;36.60;;;;;;;2.60;100.00;100318.23;1762500;81;21910;-79
2020/12/29 13:40:19;;;;;;;91.90;47.03;;;;;;;2.61;100.00;100324.00;1766594;81;21319;-79
2020/12/29 13:43:25;;;;;;;107.95;52.73;;;;;;;2.63;100.00;100323.37;1758746;81;21319;-79
2020/12/29 13:46:35;;;;;;;102.05;45.55;;;;;;;2.65;100.00;100318.72;1743331;81;21299;-79
2020/12/29 13:49:42;;;;;;;109.37;53.20;;;;;;;2.66;100.00;100312.33;1771502;80;21290;-79
2020/12/29 13:52:47;;;;;;;109.72;51.18;;;;;;;2.69;100.00;100295.88;1749599;81;21880;-79
2020/12/29 13:55:56;;;;;;;122.53;57.17;;;;;;;2.70;100.00;100298.08;1761103;81;21225;-79
2020/12/29 13:59:02;;;;;;;139.50;58.98;;;;;;;2.68;100.00;100291.47;1770456;81;21323;-79
2020/12/29 14:02:07;;;;;;;111.75;52.27;;;;;;;2.69;100.00;100293.67;1762540;81;21264;-79
2020/12/29 14:05:16;;;;;;;96.02;47.05;;;;;;;2.69;100.00;100301.28;1768458;81;21228;-79
2020/12/29 14:08:23;;;;;;;109.10;49.63;;;;;;;2.69;100.00;100303.98;1772647;81;21343;-79
2020/12/29 14:11:30;;;;;;;146.05;59.15;;;;;;;2.71;100.00;100307.90;1772624;81;21323;-79
2020/12/29 14:14:36;;;;;;;122.28;52.35;;;;;;;2.70;100.00;100309.74;1772348;81;21304;-79